Time;durP1;ratioP1;P1;durP2;ratioP2;P2;SDS_P1;SDS_P2;PMS_P1;PMS_P2;Temp;Humidity;BMP_temperature;BMP_pressure;BME280_temperature;BME280_humidity;BME280_pressure;Samples;Min_cycle;Max_cycle;Signal;HPM_P1;HPM_P2
2023/07/28 00:01:54;;;;;;;2.70;2.40;;;;;19.20;97829.00;;;;5093753;28;20097;-65
2023/07/28 00:04:20;;;;;;;3.33;2.83;;;;;19.10;97824.00;;;;5094326;28;20051;-65
2023/07/28 00:06:47;;;;;;;5.90;3.28;;;;;19.10;97827.00;;;;5093988;28;20040;-65
2023/07/28 00:09:14;;;;;;;4.18;2.78;;;;;19.20;97819.00;;;;5094218;28;20075;-65
2023/07/28 00:11:40;;;;;;;2.80;2.60;;;;;19.20;97820.00;;;;5094237;28;20127;-65
2023/07/28 00:14:07;;;;;;;4.03;2.95;;;;;19.20;97828.00;;;;5094273;28;20131;-66
2023/07/28 00:16:33;;;;;;;2.72;2.53;;;;;19.20;97823.00;;;;5094693;28;20439;-65
2023/07/28 00:19:00;;;;;;;4.03;2.58;;;;;19.10;97827.00;;;;5095181;28;20043;-65
2023/07/28 00:21:27;;;;;;;3.05;2.58;;;;;19.20;97818.00;;;;5094442;28;20063;-65
2023/07/28 00:23:54;;;;;;;4.93;3.08;;;;;19.20;97806.00;;;;5093403;28;20075;-65
2023/07/28 00:26:20;;;;;;;4.32;2.72;;;;;19.20;97805.00;;;;5093180;28;20127;-65
2023/07/28 00:28:47;;;;;;;3.83;2.83;;;;;19.20;97809.00;;;;5094656;28;20040;-65
2023/07/28 00:31:13;;;;;;;3.65;3.08;;;;;19.20;97811.00;;;;5092545;28;20147;-65
2023/07/28 00:33:40;;;;;;;5.95;3.08;;;;;19.20;97809.00;;;;5095459;28;20061;-65
2023/07/28 00:36:07;;;;;;;2.80;2.60;;;;;19.20;97809.00;;;;5094440;28;20048;-65
2023/07/28 00:38:33;;;;;;;3.45;3.13;;;;;19.30;97804.00;;;;5095519;28;20040;-65
2023/07/28 00:41:00;;;;;;;3.30;2.85;;;;;19.20;97807.00;;;;5095270;28;20081;-65
2023/07/28 00:43:27;;;;;;;3.35;3.00;;;;;19.20;97807.00;;;;5095026;28;20040;-65
2023/07/28 00:45:54;;;;;;;3.38;2.90;;;;;19.20;97800.00;;;;5094390;28;20483;-65
2023/07/28 00:48:22;;;;;;;4.00;2.80;;;;;19.20;97800.00;;;;5093082;28;20040;-64
2023/07/28 00:50:49;;;;;;;3.35;2.80;;;;;19.20;97808.00;;;;5092625;28;20086;-65
2023/07/28 00:53:16;;;;;;;3.97;2.58;;;;;19.20;97803.00;;;;5094209;28;20119;-64
2023/07/28 00:55:43;;;;;;;3.40;3.08;;;;;19.30;97809.00;;;;5091810;28;20084;-64
2023/07/28 00:58:09;;;;;;;2.85;2.53;;;;;19.20;97808.00;;;;5091689;28;20463;-64
2023/07/28 01:00:36;;;;;;;3.38;2.95;;;;;19.30;97804.00;;;;5092908;28;20051;-64
2023/07/28 01:03:04;;;;;;;5.90;3.42;;;;;19.30;97810.00;;;;5092932;28;20043;-64
2023/07/28 01:05:57;;;;;;;5.03;2.78;;;;;19.20;97805.00;;;;5092599;28;20062;-64
2023/07/28 01:08:32;;;;;;;2.90;2.70;;;;;19.20;97808.00;;;;5091765;28;20048;-65
2023/07/28 01:10:59;;;;;;;3.13;2.45;;;;;19.20;97809.00;;;;5092479;28;20101;-65
2023/07/28 01:13:26;;;;;;;5.15;2.58;;;;;19.20;97804.00;;;;5092949;28;20071;-66
2023/07/28 01:15:52;;;;;;;2.50;2.30;;;;;19.20;97805.00;;;;5091567;28;20127;-65
2023/07/28 01:18:19;;;;;;;2.50;2.28;;;;;19.20;97803.00;;;;5093300;28;20048;-64
2023/07/28 01:20:48;;;;;;;2.58;2.38;;;;;19.10;97814.00;;;;5091198;28;20044;-64
2023/07/28 01:23:50;;;;;;;2.67;2.28;;;;;19.20;97815.00;;;;5091205;28;20048;-64
2023/07/28 01:26:25;;;;;;;4.38;2.70;;;;;19.10;97817.00;;;;5086943;28;20495;-64
2023/07/28 01:28:52;;;;;;;3.33;2.70;;;;;19.10;97798.00;;;;5092650;28;20403;-64
2023/07/28 01:31:19;;;;;;;3.17;2.88;;;;;19.10;97801.00;;;;5092317;28;20134;-64
2023/07/28 01:33:46;;;;;;;4.50;2.67;;;;;19.10;97804.00;;;;5090784;28;20044;-63
2023/07/28 01:36:12;;;;;;;4.95;3.00;;;;;19.10;97801.00;;;;5092483;28;20075;-64
2023/07/28 01:38:39;;;;;;;3.33;3.05;;;;;19.10;97796.00;;;;5074345;28;20323;-64
2023/07/28 01:41:06;;;;;;;3.70;3.38;;;;;19.00;97793.00;;;;5091992;28;20581;-64
2023/07/28 01:43:32;;;;;;;3.38;2.92;;;;;19.00;97791.00;;;;5092221;28;20432;-64
2023/07/28 01:45:59;;;;;;;4.70;3.03;;;;;19.00;97787.00;;;;5090897;28;20481;-64
2023/07/28 01:48:26;;;;;;;2.90;2.67;;;;;19.00;97788.00;;;;5091133;28;20058;-66
2023/07/28 01:50:53;;;;;;;3.40;3.10;;;;;19.00;97788.00;;;;5092177;28;20044;-65
2023/07/28 01:53:20;;;;;;;3.30;3.00;;;;;19.00;97789.00;;;;5092265;28;20087;-65
2023/07/28 01:55:46;;;;;;;4.43;2.72;;;;;19.00;97793.00;;;;5092429;28;20439;-65
2023/07/28 01:58:13;;;;;;;2.88;2.60;;;;;19.00;97796.00;;;;5074436;28;20044;-65
2023/07/28 02:00:40;;;;;;;5.20;2.78;;;;;19.00;97784.00;;;;5090698;28;20048;-65
2023/07/28 02:03:07;;;;;;;3.25;2.25;;;;;19.00;97785.00;;;;5090788;28;20083;-66
2023/07/28 02:05:34;;;;;;;2.63;2.40;;;;;19.00;97781.00;;;;5090784;28;20131;-65
2023/07/28 02:08:00;;;;;;;3.38;2.35;;;;;19.00;97779.00;;;;5092175;28;20115;-66
2023/07/28 02:10:28;;;;;;;2.10;1.90;;;;;19.00;97784.00;;;;5090694;28;20117;-65
2023/07/28 02:12:55;;;;;;;2.83;2.30;;;;;19.00;97784.00;;;;5090513;28;20081;-65
2023/07/28 02:15:22;;;;;;;2.40;2.20;;;;;19.00;97778.00;;;;5090728;28;20040;-65
2023/07/28 02:17:49;;;;;;;2.78;2.50;;;;;19.00;97774.00;;;;5095168;28;20040;-65
2023/07/28 02:20:15;;;;;;;3.58;2.47;;;;;18.90;97774.00;;;;5095634;28;20044;-65
2023/07/28 02:22:43;;;;;;;2.28;2.08;;;;;18.90;97767.00;;;;5094456;28;20054;-65
2023/07/28 02:25:09;;;;;;;2.55;2.35;;;;;19.00;97780.00;;;;5094166;28;20101;-65
2023/07/28 02:27:37;;;;;;;2.50;2.30;;;;;19.00;97780.00;;;;5095666;28;20044;-65
2023/07/28 02:30:05;;;;;;;3.17;2.10;;;;;19.00;97775.00;;;;5094092;28;20500;-65
2023/07/28 02:32:32;;;;;;;2.60;1.92;;;;;19.00;97775.00;;;;5095497;28;20032;-65
2023/07/28 02:34:59;;;;;;;1.90;1.70;;;;;19.00;97776.00;;;;5095035;28;20048;-65
2023/07/28 02:37:26;;;;;;;1.58;1.38;;;;;19.00;97777.00;;;;5096755;28;20420;-65
2023/07/28 02:39:52;;;;;;;3.15;1.80;;;;;19.00;97773.00;;;;5094026;28;20146;-65
2023/07/28 02:42:19;;;;;;;1.52;1.42;;;;;19.00;97772.00;;;;5095537;28;20042;-65
2023/07/28 02:44:45;;;;;;;1.88;1.35;;;;;19.10;97770.00;;;;5095429;28;20493;-65
2023/07/28 02:47:12;;;;;;;2.20;1.48;;;;;19.10;97774.00;;;;5095374;28;20072;-64
2023/07/28 02:49:41;;;;;;;2.47;1.20;;;;;19.10;97778.00;;;;5093902;28;20121;-64
2023/07/28 02:52:07;;;;;;;1.80;1.05;;;;;19.10;97789.00;;;;5095184;28;20074;-65
2023/07/28 02:54:34;;;;;;;1.60;1.30;;;;;19.10;97787.00;;;;5077207;28;20044;-64
2023/07/28 02:57:00;;;;;;;2.63;1.35;;;;;19.10;97789.00;;;;5093797;28;20127;-64
2023/07/28 02:59:27;;;;;;;1.98;1.25;;;;;19.10;97801.00;;;;5093685;28;20067;-65
2023/07/28 03:01:54;;;;;;;1.50;1.40;;;;;19.10;97790.00;;;;5077147;28;20504;-65
2023/07/28 03:04:21;;;;;;;1.25;1.00;;;;;19.10;97788.00;;;;5093938;28;20059;-65
2023/07/28 03:07:10;;;;;;;1.00;0.85;;;;;19.10;97788.00;;;;5094737;28;20048;-65
2023/07/28 03:09:38;;;;;;;1.30;1.20;;;;;19.20;97790.00;;;;5093540;28;20040;-65
2023/07/28 03:12:06;;;;;;;1.23;1.00;;;;;19.20;97795.00;;;;5076609;28;20064;-65
2023/07/28 03:14:33;;;;;;;1.25;1.15;;;;;19.20;97785.00;;;;5093550;28;20131;-64
2023/07/28 03:16:59;;;;;;;1.85;1.27;;;;;19.20;97780.00;;;;5094741;28;20082;-65
2023/07/28 03:19:26;;;;;;;2.35;1.00;;;;;19.20;97775.00;;;;5093245;28;20500;-64
2023/07/28 03:21:53;;;;;;;1.23;0.88;;;;;19.20;97771.00;;;;5093468;28;20043;-63
2023/07/28 03:24:19;;;;;;;1.52;1.10;;;;;19.10;97774.00;;;;5093340;28;20048;-63
2023/07/28 03:26:46;;;;;;;1.45;0.90;;;;;19.10;97774.00;;;;5094445;28;20072;-64
2023/07/28 03:29:13;;;;;;;0.70;0.70;;;;;19.10;97779.00;;;;5093145;28;20052;-64
2023/07/28 03:31:39;;;;;;;2.03;1.00;;;;;19.10;97776.00;;;;5093143;28;20048;-64
2023/07/28 03:34:07;;;;;;;1.55;0.90;;;;;19.10;97786.00;;;;5093118;28;20139;-63
2023/07/28 03:36:33;;;;;;;1.23;1.13;;;;;19.00;97787.00;;;;5094394;28;20125;-64
2023/07/28 03:39:00;;;;;;;1.92;0.85;;;;;19.00;97787.00;;;;5094468;28;20043;-64
2023/07/28 03:41:27;;;;;;;0.88;0.85;;;;;18.90;97787.00;;;;5092722;28;20044;-63
2023/07/28 03:43:54;;;;;;;1.85;1.30;;;;;19.00;97791.00;;;;5094258;28;20040;-63
2023/07/28 03:46:21;;;;;;;0.85;0.82;;;;;19.00;97793.00;;;;5092950;28;20131;-63
2023/07/28 03:48:48;;;;;;;1.60;1.10;;;;;19.00;97797.00;;;;5092855;28;20047;-63
2023/07/28 03:51:14;;;;;;;1.10;1.00;;;;;19.10;97796.00;;;;5093874;28;20484;-63
2023/07/28 03:53:41;;;;;;;2.90;1.00;;;;;19.10;97798.00;;;;5092736;28;20482;-63
2023/07/28 03:56:07;;;;;;;0.85;0.85;;;;;19.10;97791.00;;;;5092528;28;20040;-63
2023/07/28 03:58:34;;;;;;;1.63;0.98;;;;;19.10;97797.00;;;;5094059;28;20040;-64
2023/07/28 04:01:00;;;;;;;0.82;0.82;;;;;19.10;97793.00;;;;5093823;28;20040;-64
2023/07/28 04:03:27;;;;;;;1.63;1.52;;;;;19.00;97794.00;;;;5093926;28;20117;-64
2023/07/28 04:05:53;;;;;;;1.33;0.82;;;;;19.00;97799.00;;;;5092995;28;20127;-65
2023/07/28 04:08:20;;;;;;;1.25;1.00;;;;;19.00;97808.00;;;;5076987;28;20080;-65
2023/07/28 04:10:47;;;;;;;1.83;0.88;;;;;19.10;97808.00;;;;5094112;28;20101;-65
2023/07/28 04:13:13;;;;;;;3.08;0.93;;;;;19.10;97816.00;;;;5076874;28;20047;-65
2023/07/28 04:15:40;;;;;;;0.93;0.93;;;;;19.10;97821.00;;;;5095297;28;20641;-65
2023/07/28 04:18:07;;;;;;;2.30;1.27;;;;;19.10;97820.00;;;;5095114;28;20396;-65
2023/07/28 04:20:33;;;;;;;1.08;1.00;;;;;19.10;97820.00;;;;5094502;28;20477;-65
2023/07/28 04:23:00;;;;;;;0.90;0.90;;;;;19.10;97828.00;;;;5094071;28;20492;-65
2023/07/28 04:25:32;;;;;;;3.22;1.10;;;;;19.10;97831.00;;;;5092228;28;20527;-65
2023/07/28 04:27:58;;;;;;;4.35;2.75;;;;;19.20;97825.00;;;;5093501;28;20047;-64
2023/07/28 04:30:25;;;;;;;1.15;1.00;;;;;19.20;97828.00;;;;5093298;28;20462;-64
2023/07/28 04:32:54;;;;;;;2.88;1.33;;;;;19.20;97834.00;;;;5092454;28;20135;-64
2023/07/28 04:35:26;;;;;;;2.83;1.55;;;;;19.20;97835.00;;;;5075913;28;20044;-67
2023/07/28 04:37:57;;;;;;;1.38;1.10;;;;;19.30;97841.00;;;;5092554;28;20450;-64
2023/07/28 04:40:47;;;;;;;1.23;1.00;;;;;19.30;97841.00;;;;5086988;28;20052;-64
2023/07/28 04:43:17;;;;;;;2.17;1.02;;;;;19.30;97843.00;;;;5091801;28;20565;-64
2023/07/28 04:45:50;;;;;;;1.17;1.08;;;;;19.30;97846.00;;;;5092286;28;20040;-65
2023/07/28 04:48:19;;;;;;;1.55;1.20;;;;;19.40;97847.00;;;;5092006;28;20044;-64
2023/07/28 04:50:46;;;;;;;1.05;0.90;;;;;19.50;97847.00;;;;5093120;28;20036;-64
2023/07/28 04:53:31;;;;;;;1.27;0.90;;;;;19.50;97845.00;;;;5093348;28;20059;-66
2023/07/28 04:56:05;;;;;;;2.10;1.20;;;;;19.50;97846.00;;;;5091304;28;20051;-66
2023/07/28 04:58:31;;;;;;;2.53;1.30;;;;;19.50;97851.00;;;;5092882;28;20083;-66
2023/07/28 05:01:01;;;;;;;1.67;1.50;;;;;19.50;97853.00;;;;5074857;28;20385;-65
2023/07/28 05:03:29;;;;;;;1.10;1.00;;;;;19.50;97858.00;;;;5091271;28;20093;-65
2023/07/28 05:06:04;;;;;;;1.00;1.00;;;;;19.50;97859.00;;;;5091417;28;20493;-65
2023/07/28 05:08:31;;;;;;;1.55;1.30;;;;;19.50;97856.00;;;;5091682;28;20043;-65
2023/07/28 05:10:58;;;;;;;1.02;0.90;;;;;19.40;97859.00;;;;5091372;28;20044;-65
2023/07/28 05:13:30;;;;;;;1.77;1.23;;;;;19.40;97859.00;;;;5091351;28;20693;-65
2023/07/28 05:15:57;;;;;;;2.22;1.10;;;;;19.50;97862.00;;;;5091333;28;20102;-65
2023/07/28 05:18:46;;;;;;;1.13;1.02;;;;;19.50;97856.00;;;;5063588;28;20495;-64
2023/07/28 05:21:36;;;;;;;2.28;1.30;;;;;19.40;97857.00;;;;5063547;28;20152;-64
2023/07/28 05:24:03;;;;;;;1.00;0.90;;;;;19.40;97857.00;;;;5091358;28;20131;-64
2023/07/28 05:26:32;;;;;;;3.92;1.27;;;;;19.40;97860.00;;;;5091422;28;20047;-64
2023/07/28 05:28:58;;;;;;;0.98;0.90;;;;;19.40;97848.00;;;;5091040;28;20050;-64
2023/07/28 05:31:25;;;;;;;1.60;1.10;;;;;19.40;97856.00;;;;5091241;28;20520;-65
2023/07/28 05:33:53;;;;;;;1.90;1.13;;;;;19.40;97856.00;;;;5091184;28;20508;-64
2023/07/28 05:36:20;;;;;;;1.30;1.20;;;;;19.40;97853.00;;;;5091106;28;20044;-64
2023/07/28 05:38:49;;;;;;;2.05;1.20;;;;;19.40;97854.00;;;;5091078;28;20079;-64
2023/07/28 05:41:16;;;;;;;1.45;1.35;;;;;19.50;97856.00;;;;5091008;28;20044;-64
2023/07/28 05:43:44;;;;;;;1.63;1.30;;;;;19.50;97862.00;;;;5074355;28;20058;-65
2023/07/28 05:46:11;;;;;;;1.38;1.27;;;;;19.60;97858.00;;;;5091028;28;20059;-64
2023/07/28 05:48:39;;;;;;;1.63;1.52;;;;;19.50;97858.00;;;;5090961;28;20044;-64
2023/07/28 05:51:05;;;;;;;2.50;1.60;;;;;19.50;97859.00;;;;5091490;28;20135;-64
2023/07/28 05:53:32;;;;;;;2.00;1.42;;;;;19.60;97858.00;;;;5095148;28;20440;-64
2023/07/28 05:56:03;;;;;;;3.30;1.80;;;;;19.60;97867.00;;;;5095431;28;20074;-65
2023/07/28 05:58:32;;;;;;;3.30;1.67;;;;;19.60;97872.00;;;;5095487;28;20048;-65
2023/07/28 06:00:59;;;;;;;3.13;2.50;;;;;19.70;97877.00;;;;5095301;28;20052;-65
2023/07/28 06:03:45;;;;;;;2.00;1.70;;;;;19.80;97877.00;;;;5096214;28;20047;-65
2023/07/28 06:06:19;;;;;;;4.80;1.83;;;;;19.80;97886.00;;;;5095568;28;20382;-65
2023/07/28 06:08:45;;;;;;;3.40;1.75;;;;;19.80;97885.00;;;;5077999;28;20040;-65
2023/07/28 06:11:12;;;;;;;2.78;1.55;;;;;19.80;97880.00;;;;5094632;28;20089;-64
2023/07/28 06:13:38;;;;;;;1.80;1.70;;;;;19.80;97883.00;;;;5094603;28;20047;-65
2023/07/28 06:16:05;;;;;;;2.70;2.00;;;;;19.80;97880.00;;;;5094750;28;20044;-65
2023/07/28 06:18:32;;;;;;;3.80;1.75;;;;;19.90;97886.00;;;;5095653;28;20071;-66
2023/07/28 06:21:08;;;;;;;2.80;2.00;;;;;20.00;97891.00;;;;5094263;28;20055;-67
2023/07/28 06:23:35;;;;;;;1.83;1.73;;;;;20.00;97887.00;;;;5094839;28;20052;-65
2023/07/28 06:26:01;;;;;;;3.00;1.35;;;;;20.10;97893.00;;;;5094260;28;20051;-64
2023/07/28 06:28:28;;;;;;;2.53;1.70;;;;;20.20;97888.00;;;;5094632;28;20141;-65
2023/07/28 06:30:56;;;;;;;2.58;2.33;;;;;20.30;97902.00;;;;5095730;28;20043;-63
2023/07/28 06:33:25;;;;;;;2.13;1.67;;;;;20.20;97900.00;;;;5094286;28;20051;-64
2023/07/28 06:35:52;;;;;;;2.47;1.40;;;;;20.20;97902.00;;;;5095704;28;20055;-64
2023/07/28 06:38:19;;;;;;;1.60;1.30;;;;;20.20;97897.00;;;;5078005;28;20162;-65
2023/07/28 06:40:46;;;;;;;2.80;1.52;;;;;20.10;97898.00;;;;5094202;28;20051;-65
2023/07/28 06:43:12;;;;;;;1.42;1.30;;;;;20.10;97898.00;;;;5094608;28;20047;-65
2023/07/28 06:45:39;;;;;;;1.52;1.40;;;;;20.10;97902.00;;;;5094270;28;20048;-65
2023/07/28 06:48:07;;;;;;;1.48;1.23;;;;;20.10;97903.00;;;;5094069;28;20044;-64
2023/07/28 06:50:34;;;;;;;1.52;1.42;;;;;20.20;97911.00;;;;5094086;28;20067;-65
2023/07/28 06:53:01;;;;;;;2.10;1.48;;;;;20.20;97918.00;;;;5095316;28;20052;-64
2023/07/28 06:55:28;;;;;;;1.33;1.23;;;;;20.30;97916.00;;;;5094209;28;20094;-66
2023/07/28 06:57:54;;;;;;;1.50;1.13;;;;;20.30;97912.00;;;;5094556;28;20093;-66
2023/07/28 07:00:21;;;;;;;1.40;1.25;;;;;20.30;97921.00;;;;5095324;28;20119;-66
2023/07/28 07:02:48;;;;;;;1.52;1.30;;;;;20.30;97923.00;;;;5093758;28;20055;-66
2023/07/28 07:05:15;;;;;;;1.40;1.30;;;;;20.40;97917.00;;;;5077454;28;20056;-66
2023/07/28 07:07:42;;;;;;;2.00;1.80;;;;;20.40;97923.00;;;;5094389;28;20085;-66
2023/07/28 07:10:09;;;;;;;1.33;1.25;;;;;20.40;97924.00;;;;5093929;28;20044;-66
2023/07/28 07:12:36;;;;;;;1.35;1.25;;;;;20.40;97924.00;;;;5095152;28;20039;-66
2023/07/28 07:15:02;;;;;;;2.10;1.90;;;;;20.50;97933.00;;;;5093985;28;20113;-66
2023/07/28 07:17:29;;;;;;;1.77;1.67;;;;;20.50;97934.00;;;;5094857;28;20552;-64
2023/07/28 07:19:56;;;;;;;2.55;2.30;;;;;20.60;97932.00;;;;5094556;28;20126;-65
2023/07/28 07:22:22;;;;;;;2.28;2.08;;;;;20.70;97927.00;;;;5094519;28;20119;-65
2023/07/28 07:24:49;;;;;;;3.42;2.05;;;;;20.90;97937.00;;;;5094670;28;20044;-65
2023/07/28 07:27:15;;;;;;;5.93;2.20;;;;;21.00;97926.00;;;;5094665;28;20051;-65
2023/07/28 07:29:42;;;;;;;2.13;2.00;;;;;21.10;97930.00;;;;5093126;28;20078;-64
2023/07/28 07:32:11;;;;;;;1.73;1.63;;;;;21.20;97933.00;;;;5094368;28;20040;-64
2023/07/28 07:34:38;;;;;;;3.95;1.90;;;;;21.30;97930.00;;;;5093406;28;20040;-65
2023/07/28 07:37:04;;;;;;;2.30;1.50;;;;;21.40;97940.00;;;;5094369;28;20040;-64
2023/07/28 07:39:32;;;;;;;2.40;1.38;;;;;21.50;97930.00;;;;5094303;28;20565;-63
2023/07/28 07:41:58;;;;;;;1.88;1.45;;;;;21.50;97943.00;;;;5094036;28;20044;-63
2023/07/28 07:44:25;;;;;;;1.83;1.55;;;;;21.40;97950.00;;;;5093091;28;20079;-65
2023/07/28 07:46:51;;;;;;;1.80;1.40;;;;;21.40;97950.00;;;;5094233;28;20036;-64
2023/07/28 07:49:19;;;;;;;2.55;1.80;;;;;21.40;97949.00;;;;5094289;28;20508;-64
2023/07/28 07:51:46;;;;;;;2.63;1.85;;;;;21.40;97952.00;;;;5094314;28;20467;-64
2023/07/28 07:54:15;;;;;;;4.65;2.15;;;;;21.30;97960.00;;;;5093948;28;20396;-66
2023/07/28 07:56:42;;;;;;;3.03;1.73;;;;;21.40;97958.00;;;;5094975;28;20054;-66
2023/07/28 07:59:09;;;;;;;3.13;2.13;;;;;21.70;97941.00;;;;5094347;28;20122;-65
2023/07/28 08:01:35;;;;;;;3.35;2.17;;;;;22.00;97946.00;;;;5094024;28;20127;-66
2023/07/28 08:04:02;;;;;;;2.65;1.52;;;;;22.30;97953.00;;;;5094011;28;20048;-65
2023/07/28 08:06:29;;;;;;;1.48;1.38;;;;;22.50;97949.00;;;;5094138;28;20115;-63
2023/07/28 08:08:56;;;;;;;1.65;1.48;;;;;22.70;97945.00;;;;5092618;28;20563;-64
2023/07/28 08:11:23;;;;;;;1.35;1.20;;;;;22.80;97949.00;;;;5093330;28;20040;-65
2023/07/28 08:13:49;;;;;;;2.92;2.10;;;;;22.90;97951.00;;;;5092838;28;20131;-64
2023/07/28 08:16:16;;;;;;;1.58;1.48;;;;;23.00;97956.00;;;;5093712;28;20097;-65
2023/07/28 08:18:46;;;;;;;2.47;1.75;;;;;22.90;97965.00;;;;5092586;28;20463;-65
2023/07/28 08:21:16;;;;;;;2.88;1.38;;;;;22.60;97962.00;;;;5093261;28;20044;-64
2023/07/28 08:23:42;;;;;;;1.77;1.50;;;;;22.40;97964.00;;;;5093282;28;20420;-63
2023/07/28 08:26:09;;;;;;;2.88;1.60;;;;;22.20;97969.00;;;;5093455;28;20052;-63
2023/07/28 08:28:35;;;;;;;3.28;1.60;;;;;22.00;97960.00;;;;5093495;28;20145;-64
2023/07/28 08:31:03;;;;;;;2.40;1.70;;;;;21.90;97965.00;;;;5093236;28;20062;-63
2023/07/28 08:33:30;;;;;;;2.65;1.75;;;;;22.00;97964.00;;;;5093373;28;20048;-64
2023/07/28 08:35:57;;;;;;;1.60;1.50;;;;;22.00;97964.00;;;;5093350;28;20040;-64
2023/07/28 08:38:23;;;;;;;1.80;1.70;;;;;22.00;97967.00;;;;5093539;28;20044;-63
2023/07/28 08:40:58;;;;;;;1.98;1.50;;;;;22.00;97963.00;;;;5093653;28;20396;-63
2023/07/28 08:43:25;;;;;;;2.47;1.65;;;;;22.00;97967.00;;;;5093236;28;20485;-63
2023/07/28 08:45:53;;;;;;;2.03;1.83;;;;;22.10;97972.00;;;;5093422;28;20040;-66
2023/07/28 08:48:19;;;;;;;2.10;1.90;;;;;22.20;97980.00;;;;5095003;28;20042;-66
2023/07/28 08:50:46;;;;;;;3.33;2.08;;;;;22.20;97975.00;;;;5095454;28;20044;-66
2023/07/28 08:53:13;;;;;;;2.35;2.00;;;;;22.20;97975.00;;;;5094731;28;20040;-66
2023/07/28 08:55:40;;;;;;;2.30;2.08;;;;;22.40;97974.00;;;;5093649;28;20086;-66
2023/07/28 08:58:21;;;;;;;2.38;1.98;;;;;22.50;97977.00;;;;5093070;28;20093;-67
2023/07/28 09:00:49;;;;;;;2.67;2.13;;;;;22.50;97975.00;;;;5093659;28;20043;-65
2023/07/28 09:03:18;;;;;;;2.25;2.05;;;;;22.40;97980.00;;;;5094424;28;20132;-66
2023/07/28 09:05:48;;;;;;;2.30;1.90;;;;;22.40;97974.00;;;;5093792;28;20044;-66
2023/07/28 09:08:16;;;;;;;2.03;1.83;;;;;22.40;97976.00;;;;5092000;28;20156;-66
2023/07/28 09:10:51;;;;;;;2.50;2.30;;;;;22.70;97975.00;;;;5092908;28;20123;-67
2023/07/28 09:13:18;;;;;;;1.95;1.83;;;;;23.00;97983.00;;;;5075030;28;20040;-67
2023/07/28 09:15:45;;;;;;;4.10;1.73;;;;;23.10;97973.00;;;;5091791;28;20101;-67
2023/07/28 09:18:14;;;;;;;2.08;1.52;;;;;23.00;97976.00;;;;5092656;28;20063;-67
2023/07/28 09:20:42;;;;;;;2.75;1.80;;;;;22.90;97973.00;;;;5092776;28;20044;-67
2023/07/28 09:23:09;;;;;;;1.70;1.60;;;;;22.80;97972.00;;;;5092972;28;20083;-67
2023/07/28 09:25:37;;;;;;;2.25;1.70;;;;;22.90;97970.00;;;;5091569;28;20044;-64
2023/07/28 09:28:04;;;;;;;3.13;1.77;;;;;23.00;97975.00;;;;5092830;28;20051;-67
2023/07/28 09:30:49;;;;;;;2.30;1.70;;;;;23.00;97985.00;;;;5091407;28;20130;-67
2023/07/28 09:33:30;;;;;;;2.50;2.20;;;;;23.00;97991.00;;;;5092782;28;20055;-66
2023/07/28 09:35:57;;;;;;;3.83;3.25;;;;;23.10;97990.00;;;;5091288;28;20127;-66
2023/07/28 09:38:27;;;;;;;3.95;3.25;;;;;23.00;97994.00;;;;5092220;28;20047;-66
2023/07/28 09:40:54;;;;;;;5.47;4.25;;;;;22.90;98001.00;;;;5090781;28;20075;-66
2023/07/28 09:43:21;;;;;;;4.10;3.63;;;;;22.70;97999.00;;;;5092157;28;20046;-67
2023/07/28 09:45:48;;;;;;;4.47;4.07;;;;;22.70;97998.00;;;;5091093;28;20511;-67
2023/07/28 09:48:16;;;;;;;3.00;2.42;;;;;22.70;98004.00;;;;5090877;28;20545;-66
2023/07/28 09:50:44;;;;;;;2.55;2.35;;;;;22.70;98021.00;;;;5092150;28;20074;-66
2023/07/28 09:53:10;;;;;;;2.33;2.13;;;;;22.60;97996.00;;;;5090814;28;20040;-67
2023/07/28 09:55:42;;;;;;;3.33;2.22;;;;;22.60;98005.00;;;;5092108;28;20052;-67
2023/07/28 09:58:12;;;;;;;4.05;1.98;;;;;22.60;98000.00;;;;5093450;28;20066;-66
2023/07/28 10:00:42;;;;;;;1.75;1.65;;;;;22.60;98008.00;;;;5091369;28;20048;-66
2023/07/28 10:03:11;;;;;;;3.58;2.05;;;;;22.60;98002.00;;;;5091179;28;20135;-66
2023/07/28 10:05:38;;;;;;;3.92;2.10;;;;;22.70;97998.00;;;;5092542;28;20126;-66
2023/07/28 10:08:06;;;;;;;2.03;1.67;;;;;22.90;98004.00;;;;5091268;28;20122;-66
2023/07/28 10:10:33;;;;;;;1.90;1.80;;;;;23.10;98003.00;;;;5092029;28;20051;-63
2023/07/28 10:13:00;;;;;;;2.70;2.00;;;;;23.30;98011.00;;;;5092296;28;20072;-65
2023/07/28 10:15:32;;;;;;;2.17;1.98;;;;;23.40;98015.00;;;;5092502;28;20124;-65
2023/07/28 10:17:59;;;;;;;1.90;1.80;;;;;23.40;98022.00;;;;5092572;28;20076;-65
2023/07/28 10:20:29;;;;;;;3.47;1.85;;;;;23.30;98025.00;;;;5092473;28;20048;-65
2023/07/28 10:23:07;;;;;;;5.00;3.58;;;;;23.00;98024.00;;;;5092135;28;20048;-61
2023/07/28 10:25:37;;;;;;;5.72;2.88;;;;;22.80;98031.00;;;;5091122;28;20048;-61
2023/07/28 10:28:05;;;;;;;3.17;2.88;;;;;22.50;98028.00;;;;5092149;28;20115;-62
2023/07/28 10:30:55;;;;;;;4.22;3.55;;;;;22.50;98026.00;;;;5092176;28;20093;-65
2023/07/28 10:33:30;;;;;;;4.07;3.38;;;;;22.60;98025.00;;;;5090890;28;20110;-64
2023/07/28 10:35:59;;;;;;;3.75;2.50;;;;;22.60;98028.00;;;;5091802;28;20118;-63
2023/07/28 10:38:34;;;;;;;2.50;2.30;;;;;22.60;98037.00;;;;5093230;28;20094;-64
2023/07/28 10:41:10;;;;;;;2.35;2.15;;;;;22.50;98039.00;;;;5093962;28;20113;-64
2023/07/28 10:43:37;;;;;;;2.50;2.30;;;;;22.40;98029.00;;;;5095346;28;20040;-64
2023/07/28 10:46:09;;;;;;;2.60;2.33;;;;;22.50;98037.00;;;;5095555;28;20062;-64
2023/07/28 10:48:40;;;;;;;3.43;2.50;;;;;22.60;98039.00;;;;5095664;28;20040;-63
2023/07/28 10:51:07;;;;;;;2.35;2.15;;;;;22.50;98046.00;;;;5095159;28;20278;-64
2023/07/28 10:53:33;;;;;;;2.67;2.38;;;;;22.40;98044.00;;;;5095121;28;20515;-63
2023/07/28 10:56:03;;;;;;;2.22;2.10;;;;;22.40;98043.00;;;;5095175;28;20127;-63
2023/07/28 10:58:31;;;;;;;2.40;2.20;;;;;22.50;98047.00;;;;5095199;28;20078;-63
2023/07/28 11:00:58;;;;;;;2.55;2.35;;;;;22.50;98041.00;;;;5095183;28;20044;-64
2023/07/28 11:03:24;;;;;;;2.13;1.90;;;;;22.50;98046.00;;;;5095318;28;20051;-64
2023/07/28 11:05:51;;;;;;;2.53;2.20;;;;;22.50;98045.00;;;;5095182;28;20044;-64
2023/07/28 11:08:18;;;;;;;2.50;2.30;;;;;22.50;98039.00;;;;5094955;28;20040;-67
2023/07/28 11:10:44;;;;;;;2.70;2.50;;;;;22.40;98041.00;;;;5094699;28;20040;-66
2023/07/28 11:13:11;;;;;;;2.65;2.45;;;;;22.40;98035.00;;;;5095074;28;20131;-66
2023/07/28 11:15:58;;;;;;;5.45;3.78;;;;;22.40;98041.00;;;;5095209;28;20040;-64
2023/07/28 11:18:26;;;;;;;3.13;2.38;;;;;22.50;98041.00;;;;5095211;28;20040;-64
2023/07/28 11:20:52;;;;;;;3.28;2.22;;;;;22.60;98055.00;;;;5093447;28;20133;-65
2023/07/28 11:23:19;;;;;;;2.58;2.38;;;;;22.60;98046.00;;;;5095006;28;20492;-65
2023/07/28 11:25:47;;;;;;;2.72;2.40;;;;;22.70;98044.00;;;;5094927;28;20078;-65
2023/07/28 11:28:14;;;;;;;2.78;2.58;;;;;23.00;98037.00;;;;5096907;28;20066;-65
2023/07/28 11:30:42;;;;;;;2.15;2.05;;;;;23.20;98043.00;;;;5109518;28;20047;-65
2023/07/28 11:33:12;;;;;;;2.83;2.42;;;;;23.30;98043.00;;;;5116077;28;20052;-65
2023/07/28 11:35:42;;;;;;;2.90;2.28;;;;;23.20;98046.00;;;;5117236;28;20028;-65
2023/07/28 11:38:09;;;;;;;2.50;2.30;;;;;23.10;98040.00;;;;5117253;28;20103;-66
2023/07/28 11:40:36;;;;;;;2.72;1.90;;;;;22.90;98045.00;;;;5117875;28;20323;-65
2023/07/28 11:43:03;;;;;;;2.00;1.88;;;;;22.70;98049.00;;;;5117366;28;20040;-65
2023/07/28 11:45:30;;;;;;;1.73;1.30;;;;;22.60;98044.00;;;;5119006;28;20096;-66
2023/07/28 11:48:07;;;;;;;1.63;1.52;;;;;22.50;98047.00;;;;5117902;28;20074;-64
2023/07/28 11:50:41;;;;;;;3.15;1.70;;;;;22.50;98043.00;;;;5117778;28;20032;-65
2023/07/28 11:53:09;;;;;;;2.00;1.80;;;;;22.40;98046.00;;;;5117532;28;20104;-65
2023/07/28 11:55:37;;;;;;;1.70;1.60;;;;;22.40;98044.00;;;;5118057;28;20067;-65
2023/07/28 11:58:05;;;;;;;1.40;1.30;;;;;22.60;98032.00;;;;5117923;28;20038;-65
2023/07/28 12:00:36;;;;;;;4.50;3.13;;;;;22.80;98035.00;;;;5118124;28;20044;-65
2023/07/28 12:03:10;;;;;;;6.05;3.92;;;;;23.10;98039.00;;;;5115116;28;20500;-65
2023/07/28 12:05:45;;;;;;;4.90;2.92;;;;;23.30;98035.00;;;;5102054;28;20044;-65
2023/07/28 12:08:34;;;;;;;4.82;3.20;;;;;23.60;98031.00;;;;5107984;28;20048;-66
2023/07/28 12:11:01;;;;;;;2.15;1.95;;;;;23.80;98026.00;;;;5101991;28;20044;-66
2023/07/28 12:13:31;;;;;;;4.82;2.95;;;;;24.00;98029.00;;;;5083293;28;20055;-66
2023/07/28 12:15:58;;;;;;;4.97;2.70;;;;;24.40;98025.00;;;;5103934;28;20047;-65
2023/07/28 12:18:30;;;;;;;1.73;1.60;;;;;24.60;98029.00;;;;5102607;28;20135;-66
2023/07/28 12:21:00;;;;;;;1.35;1.25;;;;;24.70;98028.00;;;;5102694;28;20046;-66
2023/07/28 12:23:26;;;;;;;3.97;1.58;;;;;24.70;98031.00;;;;5098027;28;20052;-65
2023/07/28 12:25:58;;;;;;;1.88;1.08;;;;;24.50;98044.00;;;;5094253;28;20067;-65